RFF110 UKFF-URMM
Flight info
| Callsign | RFF110 |
|---|---|
| Flight time | N/A |
| Altitude | 32000 |
| Route | TOLBA DCT PALER/K0487F220 B491 ANAKA/K0489F210 B491 ERSAR B967 ABELA URMM |
| Aircraft | SU27/L-SDFGRY/C |
Departure
| Time | N/A |
|---|---|
| Airport | Simferopol International Airport (UKFF) |
Arrival
| Time | 2026-04-24 23:05 |
|---|---|
| Airport | Mineralnye Vody Airport (URMM) |
| Time | Latitude | Longitude | Altitude | Speed | Heading |
|---|---|---|---|---|---|
| 2026-04-24 22:20 | 44.80645 | 39.25721 | 11334 ft | 229 kts | 360° |
| 2026-04-24 22:20 | 44.82159 | 39.26583 | 11488 ft | 274 kts | 56° |
| 2026-04-24 22:21 | 44.82420 | 39.29537 | 11166 ft | 354 kts | 100° |
| 2026-04-24 22:21 | 44.82017 | 39.33375 | 11270 ft | 437 kts | 100° |
| 2026-04-24 22:21 | 44.81511 | 39.37976 | 11284 ft | 503 kts | 100° |
| 2026-04-24 22:21 | 44.80727 | 39.42863 | 11986 ft | 512 kts | 114° |
| 2026-04-24 22:22 | 44.79348 | 39.47477 | 13684 ft | 521 kts | 116° |
| 2026-04-24 22:22 | 44.77924 | 39.52223 | 15292 ft | 528 kts | 116° |
| 2026-04-24 22:22 | 44.76497 | 39.57010 | 16974 ft | 532 kts | 116° |
| 2026-04-24 22:22 | 44.75073 | 39.61811 | 18680 ft | 533 kts | 116° |
| 2026-04-24 22:23 | 44.73655 | 39.66629 | 20298 ft | 531 kts | 116° |
| 2026-04-24 22:23 | 44.72262 | 39.71425 | 21999 ft | 527 kts | 116° |
| 2026-04-24 22:23 | 44.70903 | 39.76176 | 23757 ft | 520 kts | 116° |
| 2026-04-24 22:23 | 44.69413 | 39.80814 | 24332 ft | 533 kts | 125° |
| 2026-04-24 22:24 | 44.67423 | 39.85426 | 23916 ft | 567 kts | 127° |
| 2026-04-24 22:24 | 44.65265 | 39.90215 | 23957 ft | 593 kts | 127° |
| 2026-04-24 22:24 | 44.62981 | 39.95154 | 23974 ft | 615 kts | 130° |
| 2026-04-24 22:24 | 44.60173 | 39.99765 | 23941 ft | 624 kts | 140° |
| 2026-04-24 22:25 | 44.57054 | 40.04067 | 23963 ft | 633 kts | 141° |
| 2026-04-24 22:25 | 44.53906 | 40.08385 | 23943 ft | 628 kts | 141° |
| 2026-04-24 22:25 | 44.50971 | 40.12857 | 23935 ft | 622 kts | 134° |
| 2026-04-24 22:25 | 44.48288 | 40.17563 | 23967 ft | 614 kts | 133° |
| 2026-04-24 22:26 | 44.45652 | 40.22255 | 23984 ft | 611 kts | 133° |
| 2026-04-24 22:26 | 44.43151 | 40.27026 | 23941 ft | 609 kts | 126° |
| 2026-04-24 22:26 | 44.41191 | 40.32259 | 23925 ft | 606 kts | 115° |
| 2026-04-24 22:26 | 44.39790 | 40.37716 | 23956 ft | 585 kts | 113° |
| 2026-04-24 22:27 | 44.38463 | 40.42994 | 23971 ft | 564 kts | 113° |
| 2026-04-24 22:27 | 44.37195 | 40.48088 | 23967 ft | 545 kts | 113° |
| 2026-04-24 22:27 | 44.35968 | 40.53012 | 23989 ft | 528 kts | 113° |
| 2026-04-24 22:27 | 44.34791 | 40.57732 | 23975 ft | 513 kts | 114° |
| 2026-04-24 22:28 | 44.33630 | 40.62372 | 23978 ft | 499 kts | 114° |
| 2026-04-24 22:28 | 44.32499 | 40.66888 | 23961 ft | 486 kts | 114° |
| 2026-04-24 22:28 | 44.31394 | 40.71286 | 23963 ft | 473 kts | 114° |
| 2026-04-24 22:28 | 44.30314 | 40.75577 | 23972 ft | 465 kts | 114° |
| 2026-04-24 22:29 | 44.28184 | 40.84015 | 23651 ft | 457 kts | 114° |
| 2026-04-24 22:29 | 44.27142 | 40.88140 | 23218 ft | 442 kts | 114° |
| 2026-04-24 22:29 | 44.26149 | 40.92066 | 22920 ft | 412 kts | 115° |
| 2026-04-24 22:30 | 44.25234 | 40.95680 | 22940 ft | 378 kts | 115° |
| 2026-04-24 22:30 | 44.24392 | 40.98992 | 22923 ft | 347 kts | 116° |
| 2026-04-24 22:30 | 44.23631 | 41.01982 | 22950 ft | 316 kts | 117° |
| 2026-04-24 22:30 | 44.22920 | 41.04771 | 22959 ft | 287 kts | 118° |
| 2026-04-24 22:31 | 44.22262 | 41.07319 | 22966 ft | 281 kts | 119° |
| 2026-04-24 22:31 | 44.21593 | 41.09912 | 22972 ft | 280 kts | 118° |
| 2026-04-24 22:31 | 44.20947 | 41.12439 | 22976 ft | 280 kts | 118° |
| 2026-04-24 22:31 | 44.20294 | 41.15001 | 22970 ft | 279 kts | 118° |
| 2026-04-24 22:32 | 44.19642 | 41.17551 | 22966 ft | 279 kts | 118° |
| 2026-04-24 22:32 | 44.18992 | 41.20090 | 22967 ft | 278 kts | 118° |
| 2026-04-24 22:32 | 44.18339 | 41.22632 | 22967 ft | 277 kts | 119° |
| 2026-04-24 22:32 | 44.17690 | 41.25157 | 22967 ft | 277 kts | 119° |
| 2026-04-24 22:33 | 44.17030 | 41.27709 | 22972 ft | 283 kts | 118° |
| 2026-04-24 22:33 | 44.16354 | 41.30329 | 22968 ft | 291 kts | 118° |
| 2026-04-24 22:33 | 44.15659 | 41.33026 | 22949 ft | 301 kts | 118° |
| 2026-04-24 22:33 | 44.14942 | 41.35813 | 22974 ft | 310 kts | 118° |
| 2026-04-24 22:34 | 44.14200 | 41.38681 | 22961 ft | 318 kts | 118° |
| 2026-04-24 22:34 | 44.13442 | 41.41607 | 22964 ft | 325 kts | 118° |
| 2026-04-24 22:34 | 44.12621 | 41.44557 | 22966 ft | 332 kts | 116° |
| 2026-04-24 22:34 | 44.12117 | 41.47768 | 22961 ft | 347 kts | 101° |
| 2026-04-24 22:35 | 44.12090 | 41.51182 | 22968 ft | 358 kts | 89° |
| 2026-04-24 22:35 | 44.12283 | 41.54679 | 22970 ft | 367 kts | 87° |
| 2026-04-24 22:35 | 44.12522 | 41.58207 | 22975 ft | 375 kts | 87° |
| 2026-04-24 22:35 | 44.12776 | 41.61852 | 22961 ft | 383 kts | 87° |
| 2026-04-24 22:36 | 44.13033 | 41.65573 | 22958 ft | 390 kts | 87° |
| 2026-04-24 22:36 | 44.13294 | 41.69362 | 22967 ft | 397 kts | 87° |
| 2026-04-24 22:36 | 44.13557 | 41.73221 | 22965 ft | 404 kts | 87° |
| 2026-04-24 22:36 | 44.13825 | 41.77154 | 22970 ft | 409 kts | 87° |
| 2026-04-24 22:37 | 44.14089 | 41.81020 | 22949 ft | 386 kts | 87° |
| 2026-04-24 22:37 | 44.14331 | 41.84584 | 22953 ft | 351 kts | 88° |
| 2026-04-24 22:37 | 44.14547 | 41.87815 | 22963 ft | 321 kts | 88° |
| 2026-04-24 22:37 | 44.14747 | 41.90888 | 22979 ft | 327 kts | 88° |
| 2026-04-24 22:38 | 44.14956 | 41.94100 | 22984 ft | 340 kts | 88° |
| 2026-04-24 22:38 | 44.15178 | 41.97440 | 22979 ft | 353 kts | 88° |
| 2026-04-24 22:38 | 44.15408 | 42.00908 | 22970 ft | 365 kts | 88° |
| 2026-04-24 22:38 | 44.15644 | 42.04485 | 22977 ft | 375 kts | 88° |
| 2026-04-24 22:39 | 44.15883 | 42.08129 | 22976 ft | 379 kts | 88° |
| 2026-04-24 22:39 | 44.16122 | 42.11800 | 22973 ft | 382 kts | 88° |
| 2026-04-24 22:39 | 44.16360 | 42.15492 | 22969 ft | 383 kts | 88° |
| 2026-04-24 22:39 | 44.16597 | 42.19196 | 22966 ft | 384 kts | 88° |
| 2026-04-24 22:40 | 44.16834 | 42.22903 | 22972 ft | 385 kts | 88° |
| 2026-04-24 22:40 | 44.16991 | 42.25366 | 22971 ft | 385 kts | 88° |
| 2026-04-24 22:40 | 44.17227 | 42.29086 | 22956 ft | 385 kts | 88° |
| 2026-04-24 22:40 | 44.17481 | 42.32791 | 22568 ft | 373 kts | 89° |
| 2026-04-24 22:41 | 44.17584 | 42.36490 | 15405 ft | 482 kts | 81° |
| 2026-04-24 22:41 | 44.19127 | 42.41430 | 10947 ft | 598 kts | 60° |
| 2026-04-24 22:41 | 44.21203 | 42.46274 | 10882 ft | 563 kts | 57° |
| 2026-04-24 22:41 | 44.23304 | 42.50729 | 10693 ft | 540 kts | 54° |
| 2026-04-24 22:42 | 44.24552 | 42.55227 | 10913 ft | 461 kts | 118° |
| 2026-04-24 22:42 | 44.22250 | 42.57754 | 10885 ft | 425 kts | 154° |
| 2026-04-24 22:42 | 44.19690 | 42.59911 | 10558 ft | 434 kts | 153° |
| 2026-04-24 22:42 | 44.17078 | 42.62104 | 10090 ft | 442 kts | 153° |
| 2026-04-24 22:43 | 44.14583 | 42.64481 | 9403 ft | 448 kts | 114° |
| 2026-04-24 22:43 | 44.15227 | 42.68662 | 8519 ft | 459 kts | 62° |
| 2026-04-24 22:43 | 44.16731 | 42.72599 | 8827 ft | 452 kts | 61° |
| 2026-04-24 22:43 | 44.18301 | 42.76381 | 8950 ft | 451 kts | 58° |
| 2026-04-24 22:44 | 44.19984 | 42.80063 | 9015 ft | 449 kts | 55° |
| 2026-04-24 22:44 | 44.21733 | 42.83502 | 9832 ft | 432 kts | 53° |
| 2026-04-24 22:44 | 44.23563 | 42.86915 | 9309 ft | 450 kts | 51° |
| 2026-04-24 22:44 | 44.25515 | 42.90417 | 9200 ft | 466 kts | 51° |
| 2026-04-24 22:45 | 44.27541 | 42.94037 | 9150 ft | 476 kts | 51° |
| 2026-04-24 22:45 | 44.29354 | 42.97740 | 8945 ft | 436 kts | 82° |
| 2026-04-24 22:45 | 44.27952 | 43.00747 | 7063 ft | 392 kts | 148° |
| 2026-04-24 22:45 | 44.25853 | 43.03203 | 4309 ft | 408 kts | 127° |
| 2026-04-24 22:46 | 44.24179 | 43.06525 | 1916 ft | 419 kts | 126° |
| 2026-04-24 22:46 | 44.22685 | 43.09640 | 1915 ft | 364 kts | 123° |
| 2026-04-24 22:46 | 44.21366 | 43.12433 | 2289 ft | 329 kts | 124° |
| 2026-04-24 22:46 | 44.20145 | 43.14995 | 2482 ft | 306 kts | 124° |
| 2026-04-24 22:47 | 44.19004 | 43.17385 | 2685 ft | 283 kts | 124° |
| 2026-04-24 22:47 | 44.17507 | 43.18744 | 3832 ft | 356 kts | 231° |
| 2026-04-24 22:47 | 44.18609 | 43.15152 | 3294 ft | 492 kts | 304° |
| 2026-04-24 22:47 | 44.20664 | 43.11257 | 3261 ft | 499 kts | 307° |
| 2026-04-24 22:48 | 44.22766 | 43.07427 | 3643 ft | 503 kts | 305° |
| 2026-04-24 22:48 | 44.24673 | 43.03734 | 4168 ft | 430 kts | 305° |
| 2026-04-24 22:48 | 44.26294 | 43.00575 | 4807 ft | 377 kts | 305° |
| 2026-04-24 22:48 | 44.28117 | 42.98209 | 4890 ft | 378 kts | 333° |
| 2026-04-24 22:49 | 44.28589 | 42.95190 | 4457 ft | 383 kts | 201° |
| 2026-04-24 22:49 | 44.26839 | 42.97377 | 3356 ft | 415 kts | 108° |
| 2026-04-24 22:49 | 44.26040 | 43.01355 | 2701 ft | 437 kts | 104° |
| 2026-04-24 22:49 | 44.25336 | 43.05461 | 2818 ft | 435 kts | 104° |
| 2026-04-24 22:50 | 44.25060 | 43.09515 | 3461 ft | 417 kts | 80° |
| 2026-04-24 22:50 | 44.25664 | 43.13166 | 3756 ft | 355 kts | 75° |
| 2026-04-24 22:50 | 44.26328 | 43.16157 | 4473 ft | 296 kts | 74° |
| 2026-04-24 22:50 | 44.25768 | 43.18719 | 5225 ft | 350 kts | 129° |
| 2026-04-24 22:51 | 44.23303 | 43.20306 | 6571 ft | 464 kts | 207° |
| 2026-04-24 22:51 | 44.20791 | 43.18433 | 6011 ft | 271 kts | 210° |
| 2026-04-24 22:51 | 44.19383 | 43.17005 | 5217 ft | 244 kts | 254° |
| 2026-04-24 22:51 | 44.19617 | 43.14651 | 3634 ft | 270 kts | 300° |
| 2026-04-24 22:52 | 44.20853 | 43.12417 | 1664 ft | 309 kts | 302° |
| 2026-04-24 22:52 | 44.21961 | 43.09893 | 1149 ft | 290 kts | 302° |
| 2026-04-24 22:52 | 44.22981 | 43.07663 | 1166 ft | 257 kts | 303° |
| 2026-04-24 22:52 | 44.23931 | 43.05731 | 1164 ft | 227 kts | 320° |
| 2026-04-24 22:53 | 44.25211 | 43.04678 | 1332 ft | 212 kts | 333° |
| 2026-04-24 22:53 | 44.26517 | 43.03788 | 1771 ft | 204 kts | 334° |
| 2026-04-24 22:53 | 44.27803 | 43.02914 | 2082 ft | 205 kts | 334° |
| 2026-04-24 22:53 | 44.29069 | 43.02086 | 2464 ft | 202 kts | 335° |
| 2026-04-24 22:54 | 44.30365 | 43.01247 | 2731 ft | 209 kts | 335° |
| 2026-04-24 22:54 | 44.31705 | 43.00381 | 2972 ft | 215 kts | 335° |
| 2026-04-24 22:54 | 44.33069 | 42.99502 | 3282 ft | 217 kts | 335° |
| 2026-04-24 22:54 | 44.34418 | 42.98636 | 3718 ft | 210 kts | 334° |
| 2026-04-24 22:55 | 44.35723 | 42.97804 | 4178 ft | 203 kts | 334° |
| 2026-04-24 22:55 | 44.36979 | 42.97011 | 4647 ft | 193 kts | 334° |
| 2026-04-24 22:55 | 44.38212 | 42.96239 | 4875 ft | 199 kts | 334° |
| 2026-04-24 22:55 | 44.39486 | 42.95353 | 5055 ft | 207 kts | 309° |
| 2026-04-24 22:56 | 44.40300 | 42.93753 | 5488 ft | 217 kts | 301° |
| 2026-04-24 22:56 | 44.41174 | 42.91814 | 5536 ft | 253 kts | 301° |
| 2026-04-24 22:56 | 44.42166 | 42.89603 | 5674 ft | 282 kts | 300° |
| 2026-04-24 22:56 | 44.43142 | 42.87120 | 5821 ft | 306 kts | 297° |
| 2026-04-24 22:57 | 44.44172 | 42.84402 | 6012 ft | 325 kts | 296° |
| 2026-04-24 22:57 | 44.45159 | 42.81506 | 6448 ft | 329 kts | 290° |
| 2026-04-24 22:57 | 44.44461 | 42.78909 | 5456 ft | 346 kts | 223° |
| 2026-04-24 22:57 | 44.42564 | 42.76683 | 4938 ft | 362 kts | 221° |
| 2026-04-24 22:58 | 44.40589 | 42.74390 | 4368 ft | 373 kts | 214° |
| 2026-04-24 22:58 | 44.38295 | 42.75039 | 4101 ft | 373 kts | 137° |
| 2026-04-24 22:58 | 44.36744 | 42.77953 | 4045 ft | 375 kts | 123° |
| 2026-04-24 22:58 | 44.35429 | 42.80890 | 3812 ft | 342 kts | 122° |
| 2026-04-24 22:59 | 44.34211 | 42.83562 | 3832 ft | 310 kts | 123° |
| 2026-04-24 22:59 | 44.33082 | 42.85966 | 3773 ft | 280 kts | 126° |
| 2026-04-24 22:59 | 44.31057 | 42.90009 | 3477 ft | 230 kts | 123° |
| 2026-04-24 23:00 | 44.30259 | 42.91820 | 3340 ft | 207 kts | 123° |
| 2026-04-24 23:00 | 44.29552 | 42.93455 | 3179 ft | 187 kts | 122° |
| 2026-04-24 23:00 | 44.28909 | 42.94951 | 2966 ft | 172 kts | 123° |
| 2026-04-24 23:00 | 44.28256 | 42.96292 | 2632 ft | 163 kts | 126° |
| 2026-04-24 23:01 | 44.27624 | 42.97575 | 2235 ft | 160 kts | 123° |
| 2026-04-24 23:01 | 44.27027 | 42.98844 | 1904 ft | 152 kts | 123° |
| 2026-04-24 23:01 | 44.26438 | 43.00038 | 1580 ft | 147 kts | 126° |
| 2026-04-24 23:01 | 44.25904 | 43.01315 | 1494 ft | 159 kts | 120° |
| 2026-04-24 23:02 | 44.25290 | 43.02780 | 1475 ft | 189 kts | 120° |
| 2026-04-24 23:02 | 44.24642 | 43.04349 | 1362 ft | 190 kts | 122° |
| 2026-04-24 23:02 | 44.23952 | 43.05970 | 1268 ft | 216 kts | 117° |
| 2026-04-24 23:02 | 44.22985 | 43.08021 | 1177 ft | 290 kts | 126° |
| 2026-04-24 23:03 | 44.21802 | 43.10344 | 1192 ft | 301 kts | 109° |
| 2026-04-24 23:03 | 44.22021 | 43.13289 | 2287 ft | 392 kts | 6° |
| 2026-04-24 23:03 | 44.23890 | 43.10429 | 3258 ft | 415 kts | 295° |
| 2026-04-24 23:03 | 44.25287 | 43.07206 | 3218 ft | 371 kts | 303° |
| 2026-04-24 23:04 | 44.26248 | 43.04650 | 3444 ft | 192 kts | 252° |
| 2026-04-24 23:04 | 44.25409 | 43.03607 | 3604 ft | 179 kts | 181° |
| 2026-04-24 23:04 | 44.24381 | 43.04417 | 1612 ft | 173 kts | 114° |
| 2026-04-24 23:04 | 44.23749 | 43.05943 | 1096 ft | 175 kts | 121° |
| 2026-04-24 23:05 | 44.23226 | 43.07095 | 1042 ft | 112 kts | 122° |
| 2026-04-24 23:05 | 44.22889 | 43.07870 | 1047 ft | 79 kts | 122° |
| 2026-04-24 23:05 | 44.22626 | 43.08397 | 1050 ft | 39 kts | 123° |
| 2026-04-24 23:05 | 44.22566 | 43.08526 | 1050 ft | 13 kts | 123° |
| 2026-04-24 23:06 | 44.22501 | 43.08666 | 1052 ft | 21 kts | 122° |
| 2026-04-24 23:06 | 44.22405 | 43.08808 | 1049 ft | 20 kts | 147° |
| 2026-04-24 23:06 | 44.22283 | 43.08899 | 1049 ft | 19 kts | 153° |
| 2026-04-24 23:06 | 44.22173 | 43.08980 | 1050 ft | 17 kts | 152° |
| 2026-04-24 23:07 | 44.22070 | 43.09056 | 1049 ft | 16 kts | 152° |
| 2026-04-24 23:07 | 44.21970 | 43.09128 | 1048 ft | 14 kts | 152° |
| 2026-04-24 23:07 | 44.21899 | 43.09095 | 1048 ft | 11 kts | 216° |
| 2026-04-24 23:07 | 44.21852 | 43.09023 | 1048 ft | 9 kts | 270° |
| 2026-04-24 23:08 | 44.21880 | 43.08948 | 1048 ft | 8 kts | 300° |
| 2026-04-24 23:08 | 44.21908 | 43.08882 | 1048 ft | 7 kts | 303° |
| 2026-04-24 23:08 | 44.21934 | 43.08824 | 1048 ft | 7 kts | 303° |
| 2026-04-24 23:08 | 44.21958 | 43.08773 | 1048 ft | 6 kts | 303° |
| 2026-04-24 23:09 | 44.21989 | 43.08706 | 1048 ft | 9 kts | 303° |
| 2026-04-24 23:09 | 44.22009 | 43.08633 | 1048 ft | 7 kts | 253° |
| 2026-04-24 23:09 | 44.21973 | 43.08594 | 1048 ft | 6 kts | 212° |
| 2026-04-24 23:09 | 44.21965 | 43.08587 | 1048 ft | 0 kts | 212° |